sensor_id;sensor_type;location;lat;lon;timestamp;P1;durP1;ratioP1;P2;durP2;ratioP2
69310;SDS011;56430;48.154;16.458;2022-07-23T00:01:12;12.23;;;6.43;;
69310;SDS011;56430;48.154;16.458;2022-07-23T00:03:39;10.65;;;6.72;;
69310;SDS011;56430;48.154;16.458;2022-07-23T00:06:05;16.20;;;6.78;;
69310;SDS011;56430;48.154;16.458;2022-07-23T00:08:34;11.48;;;6.20;;
69310;SDS011;56430;48.154;16.458;2022-07-23T00:11:00;9.20;;;6.10;;
69310;SDS011;56430;48.154;16.458;2022-07-23T00:13:27;10.40;;;6.27;;
69310;SDS011;56430;48.154;16.458;2022-07-23T00:15:55;12.05;;;6.57;;
69310;SDS011;56430;48.154;16.458;2022-07-23T00:18:22;11.82;;;6.63;;
69310;SDS011;56430;48.154;16.458;2022-07-23T00:20:49;14.20;;;6.68;;
69310;SDS011;56430;48.154;16.458;2022-07-23T00:23:16;11.23;;;6.03;;
69310;SDS011;56430;48.154;16.458;2022-07-23T00:25:44;15.63;;;6.85;;
69310;SDS011;56430;48.154;16.458;2022-07-23T00:31:14;11.63;;;7.15;;
69310;SDS011;56430;48.154;16.458;2022-07-23T00:33:41;11.00;;;6.70;;
69310;SDS011;56430;48.154;16.458;2022-07-23T00:36:08;10.27;;;6.80;;
69310;SDS011;56430;48.154;16.458;2022-07-23T00:38:35;11.03;;;6.47;;
69310;SDS011;56430;48.154;16.458;2022-07-23T00:41:03;9.55;;;6.07;;
69310;SDS011;56430;48.154;16.458;2022-07-23T00:43:30;14.02;;;6.22;;
69310;SDS011;56430;48.154;16.458;2022-07-23T00:45:57;13.07;;;6.88;;
69310;SDS011;56430;48.154;16.458;2022-07-23T00:48:23;12.48;;;6.80;;
69310;SDS011;56430;48.154;16.458;2022-07-23T00:50:50;11.45;;;6.63;;
69310;SDS011;56430;48.154;16.458;2022-07-23T00:53:17;11.13;;;6.57;;
69310;SDS011;56430;48.154;16.458;2022-07-23T00:55:46;11.63;;;6.07;;
69310;SDS011;56430;48.154;16.458;2022-07-23T00:58:15;10.50;;;6.13;;
69310;SDS011;56430;48.154;16.458;2022-07-23T01:00:42;11.87;;;5.97;;
69310;SDS011;56430;48.154;16.458;2022-07-23T01:03:09;10.50;;;7.40;;
69310;SDS011;56430;48.154;16.458;2022-07-23T01:05:36;11.00;;;5.90;;
69310;SDS011;56430;48.154;16.458;2022-07-23T01:08:02;11.48;;;5.88;;
69310;SDS011;56430;48.154;16.458;2022-07-23T01:10:29;10.57;;;6.22;;
69310;SDS011;56430;48.154;16.458;2022-07-23T01:13:00;13.20;;;6.25;;
69310;SDS011;56430;48.154;16.458;2022-07-23T01:15:28;11.13;;;6.28;;
69310;SDS011;56430;48.154;16.458;2022-07-23T01:17:55;10.85;;;5.78;;
69310;SDS011;56430;48.154;16.458;2022-07-23T01:20:22;10.32;;;5.93;;
69310;SDS011;56430;48.154;16.458;2022-07-23T01:22:51;10.70;;;6.20;;
69310;SDS011;56430;48.154;16.458;2022-07-23T01:25:18;9.67;;;5.67;;
69310;SDS011;56430;48.154;16.458;2022-07-23T01:27:45;9.97;;;5.90;;
69310;SDS011;56430;48.154;16.458;2022-07-23T01:30:12;9.40;;;6.00;;
69310;SDS011;56430;48.154;16.458;2022-07-23T01:32:39;10.15;;;6.28;;
69310;SDS011;56430;48.154;16.458;2022-07-23T01:35:09;9.25;;;6.18;;
69310;SDS011;56430;48.154;16.458;2022-07-23T01:37:36;12.60;;;5.93;;
69310;SDS011;56430;48.154;16.458;2022-07-23T01:40:05;9.95;;;5.88;;
69310;SDS011;56430;48.154;16.458;2022-07-23T01:42:32;12.38;;;6.60;;
69310;SDS011;56430;48.154;16.458;2022-07-23T01:44:59;11.57;;;6.40;;
69310;SDS011;56430;48.154;16.458;2022-07-23T01:47:26;9.43;;;6.22;;
69310;SDS011;56430;48.154;16.458;2022-07-23T01:49:52;9.90;;;5.40;;
69310;SDS011;56430;48.154;16.458;2022-07-23T01:52:19;8.83;;;6.10;;
69310;SDS011;56430;48.154;16.458;2022-07-23T01:54:46;11.45;;;6.18;;
69310;SDS011;56430;48.154;16.458;2022-07-23T01:57:17;9.55;;;6.05;;
69310;SDS011;56430;48.154;16.458;2022-07-23T01:59:43;8.27;;;5.68;;
69310;SDS011;56430;48.154;16.458;2022-07-23T02:02:13;9.30;;;5.85;;
69310;SDS011;56430;48.154;16.458;2022-07-23T02:04:40;9.45;;;5.78;;
69310;SDS011;56430;48.154;16.458;2022-07-23T02:07:06;8.35;;;6.10;;
69310;SDS011;56430;48.154;16.458;2022-07-23T02:09:33;9.85;;;6.85;;
69310;SDS011;56430;48.154;16.458;2022-07-23T02:12:00;9.32;;;6.97;;
69310;SDS011;56430;48.154;16.458;2022-07-23T02:14:28;9.80;;;6.60;;
69310;SDS011;56430;48.154;16.458;2022-07-23T02:16:55;9.80;;;6.40;;
69310;SDS011;56430;48.154;16.458;2022-07-23T02:19:22;10.65;;;6.70;;
69310;SDS011;56430;48.154;16.458;2022-07-23T02:21:49;12.30;;;7.05;;
69310;SDS011;56430;48.154;16.458;2022-07-23T02:24:16;9.38;;;6.72;;
69310;SDS011;56430;48.154;16.458;2022-07-23T02:26:43;9.82;;;6.68;;
69310;SDS011;56430;48.154;16.458;2022-07-23T02:29:10;8.82;;;7.00;;
69310;SDS011;56430;48.154;16.458;2022-07-23T02:31:38;9.85;;;7.10;;
69310;SDS011;56430;48.154;16.458;2022-07-23T02:34:05;9.73;;;7.10;;
69310;SDS011;56430;48.154;16.458;2022-07-23T02:36:32;10.90;;;7.03;;
69310;SDS011;56430;48.154;16.458;2022-07-23T02:38:59;12.73;;;6.33;;
69310;SDS011;56430;48.154;16.458;2022-07-23T02:41:26;12.30;;;7.37;;
69310;SDS011;56430;48.154;16.458;2022-07-23T02:43:52;11.57;;;7.13;;
69310;SDS011;56430;48.154;16.458;2022-07-23T02:46:19;11.38;;;7.32;;
69310;SDS011;56430;48.154;16.458;2022-07-23T02:48:47;15.07;;;7.40;;
69310;SDS011;56430;48.154;16.458;2022-07-23T02:51:14;11.55;;;7.43;;
69310;SDS011;56430;48.154;16.458;2022-07-23T02:53:41;11.05;;;7.30;;
69310;SDS011;56430;48.154;16.458;2022-07-23T02:56:08;8.82;;;6.82;;
69310;SDS011;56430;48.154;16.458;2022-07-23T02:58:35;8.98;;;6.47;;
69310;SDS011;56430;48.154;16.458;2022-07-23T03:01:01;11.82;;;7.25;;
69310;SDS011;56430;48.154;16.458;2022-07-23T03:03:28;11.13;;;6.93;;
69310;SDS011;56430;48.154;16.458;2022-07-23T03:05:56;12.40;;;7.37;;
69310;SDS011;56430;48.154;16.458;2022-07-23T03:08:23;11.25;;;6.90;;
69310;SDS011;56430;48.154;16.458;2022-07-23T03:10:50;9.90;;;6.90;;
69310;SDS011;56430;48.154;16.458;2022-07-23T03:13:17;11.93;;;6.70;;
69310;SDS011;56430;48.154;16.458;2022-07-23T03:15:44;9.15;;;7.13;;
69310;SDS011;56430;48.154;16.458;2022-07-23T03:18:10;10.85;;;7.13;;
69310;SDS011;56430;48.154;16.458;2022-07-23T03:20:37;11.25;;;7.13;;
69310;SDS011;56430;48.154;16.458;2022-07-23T03:23:05;11.27;;;7.60;;
69310;SDS011;56430;48.154;16.458;2022-07-23T03:25:32;8.13;;;6.57;;
69310;SDS011;56430;48.154;16.458;2022-07-23T03:27:59;12.70;;;7.00;;
69310;SDS011;56430;48.154;16.458;2022-07-23T03:30:26;9.07;;;6.57;;
69310;SDS011;56430;48.154;16.458;2022-07-23T03:32:53;11.80;;;6.57;;
69310;SDS011;56430;48.154;16.458;2022-07-23T03:35:19;10.23;;;7.13;;
69310;SDS011;56430;48.154;16.458;2022-07-23T03:37:46;10.80;;;6.68;;
69310;SDS011;56430;48.154;16.458;2022-07-23T03:40:14;10.27;;;7.30;;
69310;SDS011;56430;48.154;16.458;2022-07-23T03:42:41;13.10;;;7.30;;
69310;SDS011;56430;48.154;16.458;2022-07-23T03:45:09;10.52;;;7.53;;
69310;SDS011;56430;48.154;16.458;2022-07-23T03:47:36;9.68;;;6.63;;
69310;SDS011;56430;48.154;16.458;2022-07-23T03:50:04;11.70;;;7.15;;
69310;SDS011;56430;48.154;16.458;2022-07-23T03:52:31;10.60;;;7.03;;
69310;SDS011;56430;48.154;16.458;2022-07-23T03:54:58;10.30;;;7.40;;
69310;SDS011;56430;48.154;16.458;2022-07-23T03:57:26;11.95;;;7.20;;
69310;SDS011;56430;48.154;16.458;2022-07-23T03:59:53;8.73;;;6.55;;
69310;SDS011;56430;48.154;16.458;2022-07-23T04:02:20;9.73;;;6.65;;
69310;SDS011;56430;48.154;16.458;2022-07-23T04:04:46;11.80;;;7.05;;
69310;SDS011;56430;48.154;16.458;2022-07-23T04:07:13;9.52;;;6.78;;
69310;SDS011;56430;48.154;16.458;2022-07-23T04:09:40;8.90;;;6.95;;
69310;SDS011;56430;48.154;16.458;2022-07-23T04:12:07;11.95;;;6.63;;
69310;SDS011;56430;48.154;16.458;2022-07-23T04:14:35;19.30;;;7.63;;
69310;SDS011;56430;48.154;16.458;2022-07-23T04:17:03;12.33;;;6.90;;
69310;SDS011;56430;48.154;16.458;2022-07-23T04:19:30;11.90;;;7.47;;
69310;SDS011;56430;48.154;16.458;2022-07-23T04:21:57;9.05;;;6.70;;
69310;SDS011;56430;48.154;16.458;2022-07-23T04:24:24;10.30;;;7.05;;
69310;SDS011;56430;48.154;16.458;2022-07-23T04:26:50;12.98;;;7.32;;
69310;SDS011;56430;48.154;16.458;2022-07-23T04:29:18;10.68;;;7.07;;
69310;SDS011;56430;48.154;16.458;2022-07-23T04:31:46;8.35;;;6.68;;
69310;SDS011;56430;48.154;16.458;2022-07-23T04:34:13;10.20;;;7.55;;
69310;SDS011;56430;48.154;16.458;2022-07-23T04:36:42;10.63;;;6.95;;
69310;SDS011;56430;48.154;16.458;2022-07-23T04:39:09;11.00;;;7.80;;
69310;SDS011;56430;48.154;16.458;2022-07-23T04:41:36;10.87;;;7.10;;
69310;SDS011;56430;48.154;16.458;2022-07-23T04:44:03;9.90;;;7.40;;
69310;SDS011;56430;48.154;16.458;2022-07-23T04:46:30;10.75;;;7.72;;
69310;SDS011;56430;48.154;16.458;2022-07-23T04:48:58;14.80;;;7.75;;
69310;SDS011;56430;48.154;16.458;2022-07-23T04:51:25;10.57;;;6.68;;
69310;SDS011;56430;48.154;16.458;2022-07-23T04:53:52;10.60;;;7.05;;
69310;SDS011;56430;48.154;16.458;2022-07-23T04:56:18;13.60;;;7.43;;
69310;SDS011;56430;48.154;16.458;2022-07-23T04:58:45;10.18;;;7.18;;
69310;SDS011;56430;48.154;16.458;2022-07-23T05:01:12;11.10;;;7.30;;
69310;SDS011;56430;48.154;16.458;2022-07-23T05:03:42;9.13;;;7.53;;
69310;SDS011;56430;48.154;16.458;2022-07-23T05:06:10;9.70;;;7.37;;
69310;SDS011;56430;48.154;16.458;2022-07-23T05:08:37;12.30;;;7.77;;
69310;SDS011;56430;48.154;16.458;2022-07-23T05:11:04;13.07;;;7.10;;
69310;SDS011;56430;48.154;16.458;2022-07-23T05:13:30;10.73;;;7.00;;
69310;SDS011;56430;48.154;16.458;2022-07-23T05:15:57;11.70;;;7.55;;
69310;SDS011;56430;48.154;16.458;2022-07-23T05:18:24;14.98;;;8.02;;
69310;SDS011;56430;48.154;16.458;2022-07-23T05:20:51;11.00;;;6.90;;
69310;SDS011;56430;48.154;16.458;2022-07-23T05:23:19;11.73;;;7.00;;
69310;SDS011;56430;48.154;16.458;2022-07-23T05:25:46;11.70;;;7.00;;
69310;SDS011;56430;48.154;16.458;2022-07-23T05:28:12;11.68;;;7.20;;
69310;SDS011;56430;48.154;16.458;2022-07-23T05:30:39;12.87;;;6.93;;
69310;SDS011;56430;48.154;16.458;2022-07-23T05:33:06;12.43;;;7.17;;
69310;SDS011;56430;48.154;16.458;2022-07-23T05:35:33;17.73;;;7.30;;
69310;SDS011;56430;48.154;16.458;2022-07-23T05:38:00;10.30;;;7.57;;
69310;SDS011;56430;48.154;16.458;2022-07-23T05:40:28;10.98;;;7.10;;
69310;SDS011;56430;48.154;16.458;2022-07-23T05:42:55;14.10;;;7.35;;
69310;SDS011;56430;48.154;16.458;2022-07-23T05:45:22;13.90;;;6.80;;
69310;SDS011;56430;48.154;16.458;2022-07-23T05:47:49;9.00;;;6.70;;
69310;SDS011;56430;48.154;16.458;2022-07-23T05:50:16;14.02;;;6.88;;
69310;SDS011;56430;48.154;16.458;2022-07-23T05:52:43;11.25;;;7.25;;
69310;SDS011;56430;48.154;16.458;2022-07-23T05:55:10;8.70;;;6.50;;
69310;SDS011;56430;48.154;16.458;2022-07-23T05:57:39;12.70;;;7.30;;
69310;SDS011;56430;48.154;16.458;2022-07-23T06:00:07;10.80;;;7.03;;
69310;SDS011;56430;48.154;16.458;2022-07-23T06:02:34;9.98;;;6.90;;
69310;SDS011;56430;48.154;16.458;2022-07-23T06:05:01;9.60;;;6.72;;
69310;SDS011;56430;48.154;16.458;2022-07-23T06:07:27;10.40;;;6.97;;
69310;SDS011;56430;48.154;16.458;2022-07-23T06:09:54;8.73;;;6.85;;
69310;SDS011;56430;48.154;16.458;2022-07-23T06:12:21;9.05;;;6.57;;
69310;SDS011;56430;48.154;16.458;2022-07-23T06:14:49;9.88;;;6.82;;
69310;SDS011;56430;48.154;16.458;2022-07-23T06:17:17;10.18;;;7.13;;
69310;SDS011;56430;48.154;16.458;2022-07-23T06:19:44;10.47;;;6.87;;
69310;SDS011;56430;48.154;16.458;2022-07-23T06:22:11;7.97;;;6.20;;
69310;SDS011;56430;48.154;16.458;2022-07-23T06:24:38;7.65;;;6.10;;
69310;SDS011;56430;48.154;16.458;2022-07-23T06:27:05;9.15;;;6.93;;
69310;SDS011;56430;48.154;16.458;2022-07-23T06:29:31;8.63;;;6.82;;
69310;SDS011;56430;48.154;16.458;2022-07-23T06:32:00;8.82;;;6.60;;
69310;SDS011;56430;48.154;16.458;2022-07-23T06:34:26;8.07;;;6.28;;
69310;SDS011;56430;48.154;16.458;2022-07-23T06:36:53;9.48;;;6.30;;
69310;SDS011;56430;48.154;16.458;2022-07-23T06:39:20;9.70;;;6.55;;
69310;SDS011;56430;48.154;16.458;2022-07-23T06:41:47;10.45;;;6.70;;
69310;SDS011;56430;48.154;16.458;2022-07-23T06:44:14;9.63;;;6.80;;
69310;SDS011;56430;48.154;16.458;2022-07-23T06:46:40;9.53;;;7.10;;
69310;SDS011;56430;48.154;16.458;2022-07-23T06:49:09;7.97;;;5.97;;
69310;SDS011;56430;48.154;16.458;2022-07-23T06:51:35;8.35;;;6.72;;
69310;SDS011;56430;48.154;16.458;2022-07-23T06:54:02;7.05;;;6.03;;
69310;SDS011;56430;48.154;16.458;2022-07-23T06:56:29;8.95;;;7.00;;
69310;SDS011;56430;48.154;16.458;2022-07-23T06:58:56;8.25;;;6.60;;
69310;SDS011;56430;48.154;16.458;2022-07-23T07:01:23;10.20;;;6.15;;
69310;SDS011;56430;48.154;16.458;2022-07-23T07:03:50;8.40;;;6.50;;
69310;SDS011;56430;48.154;16.458;2022-07-23T07:06:18;9.30;;;5.57;;
69310;SDS011;56430;48.154;16.458;2022-07-23T07:08:45;10.33;;;5.93;;
69310;SDS011;56430;48.154;16.458;2022-07-23T07:11:11;9.20;;;4.57;;
69310;SDS011;56430;48.154;16.458;2022-07-23T07:13:38;10.10;;;4.45;;
69310;SDS011;56430;48.154;16.458;2022-07-23T07:16:08;5.30;;;3.88;;
69310;SDS011;56430;48.154;16.458;2022-07-23T07:18:34;6.10;;;4.20;;
69310;SDS011;56430;48.154;16.458;2022-07-23T07:21:01;8.18;;;3.97;;
69310;SDS011;56430;48.154;16.458;2022-07-23T07:23:29;7.45;;;4.00;;
69310;SDS011;56430;48.154;16.458;2022-07-23T07:25:56;6.20;;;3.85;;
69310;SDS011;56430;48.154;16.458;2022-07-23T07:28:23;7.53;;;3.47;;
69310;SDS011;56430;48.154;16.458;2022-07-23T07:30:50;5.45;;;3.47;;
69310;SDS011;56430;48.154;16.458;2022-07-23T07:33:17;7.80;;;3.77;;
69310;SDS011;56430;48.154;16.458;2022-07-23T07:35:43;6.47;;;3.63;;
69310;SDS011;56430;48.154;16.458;2022-07-23T07:38:10;5.75;;;3.50;;
69310;SDS011;56430;48.154;16.458;2022-07-23T07:40:38;26.58;;;4.45;;
69310;SDS011;56430;48.154;16.458;2022-07-23T07:43:05;10.18;;;3.50;;
69310;SDS011;56430;48.154;16.458;2022-07-23T07:45:32;6.68;;;3.60;;
69310;SDS011;56430;48.154;16.458;2022-07-23T07:47:59;6.78;;;3.42;;
69310;SDS011;56430;48.154;16.458;2022-07-23T07:50:26;9.27;;;3.63;;
69310;SDS011;56430;48.154;16.458;2022-07-23T07:52:53;7.28;;;4.13;;
69310;SDS011;56430;48.154;16.458;2022-07-23T07:55:20;6.97;;;3.72;;
69310;SDS011;56430;48.154;16.458;2022-07-23T07:57:48;7.73;;;3.63;;
69310;SDS011;56430;48.154;16.458;2022-07-23T08:00:15;8.83;;;4.37;;
69310;SDS011;56430;48.154;16.458;2022-07-23T08:02:43;6.18;;;3.97;;
69310;SDS011;56430;48.154;16.458;2022-07-23T08:05:11;6.65;;;4.25;;
69310;SDS011;56430;48.154;16.458;2022-07-23T08:07:38;7.38;;;4.40;;
69310;SDS011;56430;48.154;16.458;2022-07-23T08:10:06;4.80;;;3.80;;
69310;SDS011;56430;48.154;16.458;2022-07-23T08:12:40;4.70;;;4.10;;
69310;SDS011;56430;48.154;16.458;2022-07-23T08:15:09;6.65;;;3.90;;
69310;SDS011;56430;48.154;16.458;2022-07-23T08:17:36;5.50;;;4.05;;
69310;SDS011;56430;48.154;16.458;2022-07-23T08:20:03;8.30;;;3.97;;
69310;SDS011;56430;48.154;16.458;2022-07-23T08:22:46;6.03;;;4.33;;
69310;SDS011;56430;48.154;16.458;2022-07-23T08:25:13;4.83;;;4.33;;
69310;SDS011;56430;48.154;16.458;2022-07-23T08:27:39;4.97;;;4.45;;
69310;SDS011;56430;48.154;16.458;2022-07-23T08:30:07;5.57;;;4.57;;
69310;SDS011;56430;48.154;16.458;2022-07-23T08:32:47;6.32;;;5.20;;
69310;SDS011;56430;48.154;16.458;2022-07-23T08:35:13;6.85;;;5.45;;
69310;SDS011;56430;48.154;16.458;2022-07-23T08:37:40;7.10;;;5.30;;
69310;SDS011;56430;48.154;16.458;2022-07-23T08:40:07;5.97;;;5.38;;
69310;SDS011;56430;48.154;16.458;2022-07-23T08:42:34;6.18;;;5.57;;
69310;SDS011;56430;48.154;16.458;2022-07-23T08:45:02;7.00;;;6.30;;
69310;SDS011;56430;48.154;16.458;2022-07-23T08:47:29;5.40;;;4.63;;
69310;SDS011;56430;48.154;16.458;2022-07-23T08:49:57;5.93;;;5.27;;
69310;SDS011;56430;48.154;16.458;2022-07-23T08:52:25;5.97;;;5.35;;
69310;SDS011;56430;48.154;16.458;2022-07-23T08:54:52;8.52;;;6.15;;
69310;SDS011;56430;48.154;16.458;2022-07-23T08:57:19;6.70;;;5.82;;
69310;SDS011;56430;48.154;16.458;2022-07-23T08:59:46;7.53;;;6.40;;
69310;SDS011;56430;48.154;16.458;2022-07-23T09:02:13;6.30;;;5.70;;
69310;SDS011;56430;48.154;16.458;2022-07-23T09:04:40;7.50;;;6.15;;
69310;SDS011;56430;48.154;16.458;2022-07-23T09:07:08;6.97;;;6.00;;
69310;SDS011;56430;48.154;16.458;2022-07-23T09:09:35;6.38;;;5.88;;
69310;SDS011;56430;48.154;16.458;2022-07-23T09:12:02;6.70;;;6.10;;
69310;SDS011;56430;48.154;16.458;2022-07-23T09:14:36;6.93;;;6.33;;
69310;SDS011;56430;48.154;16.458;2022-07-23T09:17:10;6.65;;;6.05;;
69310;SDS011;56430;48.154;16.458;2022-07-23T09:19:37;7.00;;;6.30;;
69310;SDS011;56430;48.154;16.458;2022-07-23T09:22:18;7.28;;;6.65;;
69310;SDS011;56430;48.154;16.458;2022-07-23T09:27:44;11.57;;;6.63;;
69310;SDS011;56430;48.154;16.458;2022-07-23T09:30:11;7.03;;;6.43;;
69310;SDS011;56430;48.154;16.458;2022-07-23T09:32:38;7.35;;;6.75;;
69310;SDS011;56430;48.154;16.458;2022-07-23T09:35:05;7.95;;;7.25;;
69310;SDS011;56430;48.154;16.458;2022-07-23T09:37:33;7.70;;;7.07;;
69310;SDS011;56430;48.154;16.458;2022-07-23T09:40:03;8.37;;;7.13;;
69310;SDS011;56430;48.154;16.458;2022-07-23T09:42:30;9.13;;;8.32;;
69310;SDS011;56430;48.154;16.458;2022-07-23T09:44:57;9.60;;;8.70;;
69310;SDS011;56430;48.154;16.458;2022-07-23T09:47:27;8.88;;;8.23;;
69310;SDS011;56430;48.154;16.458;2022-07-23T09:49:57;8.70;;;8.00;;
69310;SDS011;56430;48.154;16.458;2022-07-23T09:52:25;9.35;;;8.55;;
69310;SDS011;56430;48.154;16.458;2022-07-23T09:54:58;8.68;;;7.97;;
69310;SDS011;56430;48.154;16.458;2022-07-23T09:57:26;9.40;;;8.60;;
69310;SDS011;56430;48.154;16.458;2022-07-23T09:59:53;10.27;;;9.40;;
69310;SDS011;56430;48.154;16.458;2022-07-23T10:02:23;9.13;;;8.33;;
69310;SDS011;56430;48.154;16.458;2022-07-23T10:04:51;10.20;;;9.30;;
69310;SDS011;56430;48.154;16.458;2022-07-23T10:07:19;9.80;;;9.00;;
69310;SDS011;56430;48.154;16.458;2022-07-23T10:09:48;9.70;;;8.70;;
69310;SDS011;56430;48.154;16.458;2022-07-23T10:12:19;10.30;;;9.48;;
69310;SDS011;56430;48.154;16.458;2022-07-23T10:15:07;9.57;;;8.80;;
69310;SDS011;56430;48.154;16.458;2022-07-23T10:17:34;9.55;;;8.63;;
69310;SDS011;56430;48.154;16.458;2022-07-23T10:20:02;9.15;;;8.32;;
69310;SDS011;56430;48.154;16.458;2022-07-23T10:22:30;8.93;;;8.05;;
69310;SDS011;56430;48.154;16.458;2022-07-23T10:25:04;8.80;;;8.07;;
69310;SDS011;56430;48.154;16.458;2022-07-23T10:27:39;7.93;;;7.20;;
69310;SDS011;56430;48.154;16.458;2022-07-23T10:30:09;8.00;;;7.30;;
69310;SDS011;56430;48.154;16.458;2022-07-23T10:32:39;9.32;;;7.88;;
69310;SDS011;56430;48.154;16.458;2022-07-23T10:35:09;8.52;;;7.82;;
69310;SDS011;56430;48.154;16.458;2022-07-23T10:37:38;8.57;;;7.78;;
69310;SDS011;56430;48.154;16.458;2022-07-23T10:40:09;8.60;;;7.90;;
69310;SDS011;56430;48.154;16.458;2022-07-23T10:42:36;9.30;;;8.40;;
69310;SDS011;56430;48.154;16.458;2022-07-23T10:45:12;9.57;;;8.70;;
69310;SDS011;56430;48.154;16.458;2022-07-23T10:47:48;9.73;;;8.93;;
69310;SDS011;56430;48.154;16.458;2022-07-23T10:50:16;10.32;;;9.32;;
69310;SDS011;56430;48.154;16.458;2022-07-23T10:52:46;9.43;;;8.53;;
69310;SDS011;56430;48.154;16.458;2022-07-23T10:55:40;9.13;;;8.23;;
69310;SDS011;56430;48.154;16.458;2022-07-23T10:58:08;9.02;;;8.23;;
69310;SDS011;56430;48.154;16.458;2022-07-23T11:00:36;9.40;;;8.52;;
69310;SDS011;56430;48.154;16.458;2022-07-23T11:03:04;9.35;;;8.45;;
69310;SDS011;56430;48.154;16.458;2022-07-23T11:05:39;9.65;;;8.85;;
69310;SDS011;56430;48.154;16.458;2022-07-23T11:08:10;9.30;;;8.50;;
69310;SDS011;56430;48.154;16.458;2022-07-23T11:10:40;9.38;;;8.63;;
69310;SDS011;56430;48.154;16.458;2022-07-23T11:13:26;9.30;;;8.32;;
69310;SDS011;56430;48.154;16.458;2022-07-23T11:16:17;9.32;;;8.43;;
69310;SDS011;56430;48.154;16.458;2022-07-23T11:21:47;10.33;;;8.30;;
69310;SDS011;56430;48.154;16.458;2022-07-23T11:24:16;13.38;;;8.52;;
69310;SDS011;56430;48.154;16.458;2022-07-23T11:26:44;10.60;;;7.47;;
69310;SDS011;56430;48.154;16.458;2022-07-23T11:32:03;8.63;;;7.82;;
69310;SDS011;56430;48.154;16.458;2022-07-23T11:34:30;9.05;;;7.60;;
69310;SDS011;56430;48.154;16.458;2022-07-23T11:36:57;9.10;;;7.82;;
69310;SDS011;56430;48.154;16.458;2022-07-23T11:39:25;8.35;;;7.32;;
69310;SDS011;56430;48.154;16.458;2022-07-23T11:41:52;8.07;;;7.38;;
69310;SDS011;56430;48.154;16.458;2022-07-23T11:44:25;10.60;;;7.47;;
69310;SDS011;56430;48.154;16.458;2022-07-23T11:46:55;8.60;;;7.30;;
69310;SDS011;56430;48.154;16.458;2022-07-23T11:49:24;8.50;;;7.55;;
69310;SDS011;56430;48.154;16.458;2022-07-23T11:52:04;7.90;;;7.20;;
69310;SDS011;56430;48.154;16.458;2022-07-23T11:54:31;8.73;;;7.93;;
69310;SDS011;56430;48.154;16.458;2022-07-23T11:56:58;9.93;;;8.15;;
69310;SDS011;56430;48.154;16.458;2022-07-23T11:59:26;15.90;;;8.07;;
69310;SDS011;56430;48.154;16.458;2022-07-23T12:01:56;9.07;;;7.30;;
69310;SDS011;56430;48.154;16.458;2022-07-23T12:04:29;9.05;;;7.78;;
69310;SDS011;56430;48.154;16.458;2022-07-23T12:07:03;10.95;;;7.78;;
69310;SDS011;56430;48.154;16.458;2022-07-23T12:09:30;7.80;;;6.80;;
69310;SDS011;56430;48.154;16.458;2022-07-23T12:11:57;10.07;;;7.97;;
69310;SDS011;56430;48.154;16.458;2022-07-23T12:14:24;9.30;;;7.43;;
69310;SDS011;56430;48.154;16.458;2022-07-23T12:19:34;9.70;;;7.63;;
69310;SDS011;56430;48.154;16.458;2022-07-23T12:22:01;9.40;;;7.47;;
69310;SDS011;56430;48.154;16.458;2022-07-23T12:24:28;9.65;;;7.80;;
69310;SDS011;56430;48.154;16.458;2022-07-23T12:27:07;8.50;;;7.60;;
69310;SDS011;56430;48.154;16.458;2022-07-23T12:29:34;9.70;;;7.20;;
69310;SDS011;56430;48.154;16.458;2022-07-23T12:32:01;9.38;;;7.40;;
69310;SDS011;56430;48.154;16.458;2022-07-23T12:34:28;7.63;;;6.90;;
69310;SDS011;56430;48.154;16.458;2022-07-23T12:37:00;7.90;;;6.90;;
69310;SDS011;56430;48.154;16.458;2022-07-23T12:39:31;9.43;;;7.10;;
69310;SDS011;56430;48.154;16.458;2022-07-23T12:41:58;7.38;;;6.57;;
69310;SDS011;56430;48.154;16.458;2022-07-23T12:44:25;8.52;;;6.00;;
69310;SDS011;56430;48.154;16.458;2022-07-23T12:46:52;7.25;;;6.32;;
69310;SDS011;56430;48.154;16.458;2022-07-23T12:49:25;8.30;;;5.93;;
69310;SDS011;56430;48.154;16.458;2022-07-23T12:51:52;8.82;;;6.28;;
69310;SDS011;56430;48.154;16.458;2022-07-23T12:54:26;7.32;;;6.00;;
69310;SDS011;56430;48.154;16.458;2022-07-23T12:56:53;7.20;;;5.63;;
69310;SDS011;56430;48.154;16.458;2022-07-23T12:59:20;7.40;;;5.43;;
69310;SDS011;56430;48.154;16.458;2022-07-23T13:01:53;6.50;;;5.13;;
69310;SDS011;56430;48.154;16.458;2022-07-23T13:04:21;12.35;;;5.35;;
69310;SDS011;56430;48.154;16.458;2022-07-23T13:06:49;5.75;;;4.80;;
69310;SDS011;56430;48.154;16.458;2022-07-23T13:09:18;25.83;;;6.00;;
69310;SDS011;56430;48.154;16.458;2022-07-23T13:11:46;65.40;;;7.70;;
69310;SDS011;56430;48.154;16.458;2022-07-23T13:14:14;14.45;;;5.85;;
69310;SDS011;56430;48.154;16.458;2022-07-23T13:16:41;10.60;;;5.85;;
69310;SDS011;56430;48.154;16.458;2022-07-23T13:19:08;12.02;;;5.38;;
69310;SDS011;56430;48.154;16.458;2022-07-23T13:21:35;7.43;;;5.50;;
69310;SDS011;56430;48.154;16.458;2022-07-23T13:24:02;8.50;;;4.67;;
69310;SDS011;56430;48.154;16.458;2022-07-23T13:26:29;9.17;;;5.50;;
69310;SDS011;56430;48.154;16.458;2022-07-23T13:28:57;11.45;;;5.40;;
69310;SDS011;56430;48.154;16.458;2022-07-23T13:31:24;16.05;;;5.13;;
69310;SDS011;56430;48.154;16.458;2022-07-23T13:33:51;9.80;;;4.43;;
69310;SDS011;56430;48.154;16.458;2022-07-23T13:36:17;8.00;;;4.38;;
69310;SDS011;56430;48.154;16.458;2022-07-23T13:38:44;7.25;;;4.30;;
69310;SDS011;56430;48.154;16.458;2022-07-23T13:41:11;5.90;;;4.15;;
69310;SDS011;56430;48.154;16.458;2022-07-23T13:43:38;6.07;;;3.88;;
69310;SDS011;56430;48.154;16.458;2022-07-23T13:46:06;5.50;;;3.35;;
69310;SDS011;56430;48.154;16.458;2022-07-23T13:48:35;6.60;;;3.10;;
69310;SDS011;56430;48.154;16.458;2022-07-23T13:51:02;5.93;;;3.07;;
69310;SDS011;56430;48.154;16.458;2022-07-23T13:53:29;4.60;;;3.20;;
69310;SDS011;56430;48.154;16.458;2022-07-23T13:55:56;4.65;;;3.38;;
69310;SDS011;56430;48.154;16.458;2022-07-23T13:58:23;4.60;;;3.03;;
69310;SDS011;56430;48.154;16.458;2022-07-23T14:00:51;3.70;;;3.10;;
69310;SDS011;56430;48.154;16.458;2022-07-23T14:03:19;4.40;;;3.15;;
69310;SDS011;56430;48.154;16.458;2022-07-23T14:05:48;5.30;;;3.50;;
69310;SDS011;56430;48.154;16.458;2022-07-23T14:08:15;7.03;;;3.10;;
69310;SDS011;56430;48.154;16.458;2022-07-23T14:10:42;4.00;;;2.95;;
69310;SDS011;56430;48.154;16.458;2022-07-23T14:13:08;4.73;;;3.00;;
69310;SDS011;56430;48.154;16.458;2022-07-23T14:15:35;3.97;;;3.10;;
69310;SDS011;56430;48.154;16.458;2022-07-23T14:18:04;4.10;;;3.13;;
69310;SDS011;56430;48.154;16.458;2022-07-23T14:20:32;4.45;;;3.40;;
69310;SDS011;56430;48.154;16.458;2022-07-23T14:22:59;4.00;;;2.90;;
69310;SDS011;56430;48.154;16.458;2022-07-23T14:25:26;4.60;;;3.20;;
69310;SDS011;56430;48.154;16.458;2022-07-23T14:27:53;3.80;;;3.00;;
69310;SDS011;56430;48.154;16.458;2022-07-23T14:30:20;5.80;;;3.10;;
69310;SDS011;56430;48.154;16.458;2022-07-23T14:32:48;4.97;;;2.95;;
69310;SDS011;56430;48.154;16.458;2022-07-23T14:35:15;3.50;;;3.10;;
69310;SDS011;56430;48.154;16.458;2022-07-23T14:37:43;4.00;;;2.90;;
69310;SDS011;56430;48.154;16.458;2022-07-23T14:40:10;3.40;;;2.87;;
69310;SDS011;56430;48.154;16.458;2022-07-23T14:42:37;3.85;;;2.92;;
69310;SDS011;56430;48.154;16.458;2022-07-23T14:45:04;4.50;;;2.88;;
69310;SDS011;56430;48.154;16.458;2022-07-23T14:47:32;6.80;;;2.80;;